Terminal Aerodrome Forecast
Issued by NWS Wilmington, OH

Current Version | Previous Version | Graphics & Text | Print | Product List | Glossary On
Versions: 1 2 3 4 5 6 7 8 9 10 11 12 13 14 15 16 17 18 19 20 21 22 23
000
FTUS41 KILN 182342
TAFDAY
TAF
KDAY 182342Z 1900/1924 08013KT P6SM -SHRA OVC025
     FM190300 09012KT 3SM SHRA BKN008 OVC012
     FM190700 14009KT 5SM BR VCSH OVC008
     FM191300 18012KT P6SM VCSH OVC009
     FM191800 21012G20KT P6SM -SHRA VCTS BKN025CB
     FM192300 24010KT P6SM BKN015=

USA.gov is the U.S. government's official web portal to all federal, state and local government web resources and services.